Time;durP1;ratioP1;P1;durP2;ratioP2;P2;SDS_P1;SDS_P2;PMS_P1;PMS_P2;Temp;Humidity;BMP_temperature;BMP_pressure;BME280_temperature;BME280_humidity;BME280_pressure;Samples;Min_cycle;Max_cycle;Signal;HPM_P1;HPM_P2
2022/08/03 00:01:02;;;;;;;22.65;19.40;;;;;;;;;;1736351;82;21512;-68
2022/08/03 00:03:29;;;;;;;27.52;20.20;;;;;;;;;;1728115;82;21056;-68
2022/08/03 00:05:56;;;;;;;25.65;19.90;;;;;;;;;;1732311;82;21064;-69
2022/08/03 00:08:23;;;;;;;26.50;19.20;;;;;;;;;;1743072;82;21087;-69
2022/08/03 00:10:49;;;;;;;30.10;20.17;;;;;;;;;;1725704;82;21869;-68
2022/08/03 00:13:18;;;;;;;23.22;19.32;;;;;;;;;;1738539;82;21043;-69
2022/08/03 00:15:45;;;;;;;21.60;18.50;;;;;;;;;;1736857;82;21126;-68
2022/08/03 00:18:13;;;;;;;24.85;19.67;;;;;;;;;;1727876;82;21071;-68
2022/08/03 00:20:40;;;;;;;23.75;19.25;;;;;;;;;;1732466;82;21080;-68
2022/08/03 00:26:22;;;;;;;23.47;19.57;;;;;;;;;;1743945;81;21040;-69
2022/08/03 00:28:49;;;;;;;25.57;20.17;;;;;;;;;;1721574;82;21095;-68
2022/08/03 00:31:18;;;;;;;28.42;19.55;;;;;;;;;;1726645;82;21610;-70
2022/08/03 00:33:44;;;;;;;21.62;18.98;;;;;;;;;;1724063;82;20995;-69
2022/08/03 00:36:11;;;;;;;27.90;18.95;;;;;;;;;;1720996;82;21031;-69
2022/08/03 00:38:38;;;;;;;26.77;19.05;;;;;;;;;;1735590;82;21087;-69
2022/08/03 00:41:05;;;;;;;24.67;20.05;;;;;;;;;;1726621;82;21048;-68
2022/08/03 00:43:32;;;;;;;30.48;18.80;;;;;;;;;;1729792;82;21039;-70
2022/08/03 00:45:59;;;;;;;23.47;19.67;;;;;;;;;;1749663;82;21040;-69
2022/08/03 00:48:25;;;;;;;23.80;19.12;;;;;;;;;;1729781;82;21028;-67
2022/08/03 00:50:52;;;;;;;27.52;20.72;;;;;;;;;;1718720;82;21082;-67
2022/08/03 00:53:21;;;;;;;22.85;19.73;;;;;;;;;;1735108;82;21020;-67
2022/08/03 00:55:48;;;;;;;27.45;20.97;;;;;;;;;;1738836;82;21062;-68
2022/08/03 00:58:15;;;;;;;24.75;19.40;;;;;;;;;;1732818;82;21511;-68
2022/08/03 01:00:42;;;;;;;26.95;19.75;;;;;;;;;;1739568;82;21511;-68
2022/08/03 01:03:10;;;;;;;23.55;18.50;;;;;;;;;;1752114;81;21019;-68
2022/08/03 01:05:41;;;;;;;27.02;18.92;;;;;;;;;;1746665;82;21039;-68
2022/08/03 01:08:24;;;;;;;24.32;18.92;;;;;;;;;;1721817;81;21039;-70
2022/08/03 01:11:06;;;;;;;22.02;18.17;;;;;;;;;;1745279;82;21083;-68
2022/08/03 01:14:03;;;;;;;27.77;19.00;;;;;;;;;;1718256;82;21039;-68
2022/08/03 01:16:46;;;;;;;28.40;19.37;;;;;;;;;;1727570;81;21552;-68
2022/08/03 01:19:19;;;;;;;26.65;18.62;;;;;;;;;;1743606;82;21048;-69
2022/08/03 01:22:01;;;;;;;30.72;19.77;;;;;;;;;;1751192;82;21503;-69
2022/08/03 01:24:51;;;;;;;24.95;18.87;;;;;;;;;;1730672;82;21074;-70
2022/08/03 01:27:22;;;;;;;28.60;19.42;;;;;;;;;;1741614;82;21091;-69
2022/08/03 01:30:07;;;;;;;26.52;18.82;;;;;;;;;;1737083;82;21576;-69
2022/08/03 01:32:40;;;;;;;23.95;19.00;;;;;;;;;;1739232;82;21071;-69
2022/08/03 01:35:20;;;;;;;23.90;18.27;;;;;;;;;;1737167;82;21082;-68
2022/08/03 01:37:59;;;;;;;26.02;18.23;;;;;;;;;;1740187;81;21147;-69
2022/08/03 01:40:27;;;;;;;25.35;18.60;;;;;;;;;;1728337;82;21593;-69
2022/08/03 01:42:57;;;;;;;24.77;18.50;;;;;;;;;;1733593;82;21086;-68
2022/08/03 01:45:24;;;;;;;27.65;19.00;;;;;;;;;;1740059;81;21074;-69
2022/08/03 01:47:52;;;;;;;24.92;18.57;;;;;;;;;;1728287;82;21097;-69
2022/08/03 01:50:23;;;;;;;22.67;17.98;;;;;;;;;;1741246;82;21079;-68
2022/08/03 01:52:50;;;;;;;20.50;17.50;;;;;;;;;;1735687;82;21031;-69
2022/08/03 01:55:18;;;;;;;23.98;17.87;;;;;;;;;;1727387;82;21016;-68
2022/08/03 01:57:47;;;;;;;23.75;18.20;;;;;;;;;;1733102;82;21050;-68
2022/08/03 02:00:14;;;;;;;23.70;18.48;;;;;;;;;;1735085;82;21039;-69
2022/08/03 02:02:44;;;;;;;23.92;19.92;;;;;;;;;;1744176;82;21143;-68
2022/08/03 02:05:12;;;;;;;26.77;19.85;;;;;;;;;;1720259;81;21070;-68
2022/08/03 02:07:40;;;;;;;22.70;19.50;;;;;;;;;;1742728;82;21043;-68
2022/08/03 02:10:09;;;;;;;24.70;19.87;;;;;;;;;;1746230;82;21043;-68
2022/08/03 02:12:36;;;;;;;25.12;20.20;;;;;;;;;;1735676;82;21025;-69
2022/08/03 02:15:05;;;;;;;25.75;20.12;;;;;;;;;;1724371;82;21027;-68
2022/08/03 02:17:32;;;;;;;23.83;20.20;;;;;;;;;;1734436;82;21066;-68
2022/08/03 02:20:00;;;;;;;26.17;19.98;;;;;;;;;;1732019;82;21031;-68
2022/08/03 02:22:27;;;;;;;32.98;21.80;;;;;;;;;;1730561;82;21041;-68
2022/08/03 02:24:54;;;;;;;30.37;22.27;;;;;;;;;;1725650;82;21052;-68
2022/08/03 02:27:23;;;;;;;26.55;21.07;;;;;;;;;;1731525;81;21512;-68
2022/08/03 02:29:56;;;;;;;30.43;23.15;;;;;;;;;;1726652;82;21072;-69
2022/08/03 02:32:27;;;;;;;33.85;23.67;;;;;;;;;;1732997;82;21556;-68
2022/08/03 02:34:54;;;;;;;33.98;24.43;;;;;;;;;;1751746;82;21032;-68
2022/08/03 02:37:23;;;;;;;32.35;24.98;;;;;;;;;;1741521;82;21068;-68
2022/08/03 02:39:52;;;;;;;37.13;27.42;;;;;;;;;;1725616;82;21033;-68
2022/08/03 02:42:21;;;;;;;36.08;26.17;;;;;;;;;;1738761;81;21038;-67
2022/08/03 02:44:49;;;;;;;32.05;25.15;;;;;;;;;;1736221;81;21024;-69
2022/08/03 02:47:19;;;;;;;32.73;25.43;;;;;;;;;;1742015;82;21099;-67
2022/08/03 02:49:47;;;;;;;30.65;25.65;;;;;;;;;;1711281;81;21526;-68
2022/08/03 02:52:14;;;;;;;32.42;25.05;;;;;;;;;;1738295;82;21020;-68
2022/08/03 02:54:42;;;;;;;32.93;25.20;;;;;;;;;;1731704;82;21032;-67
2022/08/03 02:57:10;;;;;;;29.30;24.43;;;;;;;;;;1730407;82;21555;-67
2022/08/03 02:59:39;;;;;;;29.12;23.77;;;;;;;;;;1723824;82;21074;-68
2022/08/03 03:02:06;;;;;;;27.40;23.92;;;;;;;;;;1736493;81;21071;-68
2022/08/03 03:04:34;;;;;;;28.17;23.25;;;;;;;;;;1749438;81;21547;-67
2022/08/03 03:07:01;;;;;;;30.37;24.15;;;;;;;;;;1740035;82;21043;-68
2022/08/03 03:09:29;;;;;;;29.05;23.10;;;;;;;;;;1746969;82;21027;-67
2022/08/03 03:11:57;;;;;;;28.73;23.87;;;;;;;;;;1725022;82;21094;-68
2022/08/03 03:14:23;;;;;;;28.20;24.10;;;;;;;;;;1729849;82;21020;-68
2022/08/03 03:16:51;;;;;;;30.88;25.37;;;;;;;;;;1732722;82;21087;-68
2022/08/03 03:22:43;;;;;;;31.02;25.17;;;;;;;;;;1745714;82;21139;-68
2022/08/03 03:25:09;;;;;;;28.15;25.00;;;;;;;;;;1732639;81;21029;-68
2022/08/03 03:27:36;;;;;;;28.65;25.00;;;;;;;;;;1746976;82;21028;-69
2022/08/03 03:30:03;;;;;;;29.48;25.08;;;;;;;;;;1738926;82;21009;-69
2022/08/03 03:32:30;;;;;;;27.77;24.35;;;;;;;;;;1723737;82;21004;-68
2022/08/03 03:34:58;;;;;;;27.35;24.23;;;;;;;;;;1725600;82;21021;-68
2022/08/03 03:37:26;;;;;;;29.52;24.45;;;;;;;;;;1731637;82;21140;-68
2022/08/03 03:39:53;;;;;;;28.45;24.37;;;;;;;;;;1724753;82;21208;-69
2022/08/03 03:42:21;;;;;;;29.15;24.27;;;;;;;;;;1739289;82;21508;-68
2022/08/03 03:44:47;;;;;;;26.97;24.02;;;;;;;;;;1741695;82;21035;-68
2022/08/03 03:47:14;;;;;;;32.05;24.82;;;;;;;;;;1728484;82;21099;-69
2022/08/03 03:49:41;;;;;;;28.47;25.17;;;;;;;;;;1726983;82;21059;-68
2022/08/03 03:52:08;;;;;;;27.98;24.98;;;;;;;;;;1727673;81;21103;-67
2022/08/03 03:54:43;;;;;;;33.65;25.77;;;;;;;;;;1738180;82;21485;-68
2022/08/03 03:57:10;;;;;;;28.80;25.65;;;;;;;;;;1734372;82;21027;-68
2022/08/03 03:59:38;;;;;;;31.33;25.48;;;;;;;;;;1741923;82;21040;-68
2022/08/03 04:02:06;;;;;;;28.83;25.77;;;;;;;;;;1741201;82;21047;-68
2022/08/03 04:12:54;;;;;;;31.10;27.37;;;;;;;;;;1723330;82;21091;-68
2022/08/03 04:18:47;;;;;;;30.35;27.13;;;;;;;;;;1744103;81;21635;-68
2022/08/03 04:21:16;;;;;;;31.93;27.80;;;;;;;;;;1734665;81;21077;-69
2022/08/03 04:23:47;;;;;;;30.20;26.95;;;;;;;;;;1732179;82;21034;-70
2022/08/03 04:26:17;;;;;;;35.55;28.10;;;;;;;;;;1734159;82;21064;-69
2022/08/03 04:35:07;;;;;;;30.95;27.62;;;;;;;;;;1739524;82;21072;-69
2022/08/03 04:37:46;;;;;;;31.60;28.20;;;;;;;;;;1727223;82;21103;-68
2022/08/03 04:40:15;;;;;;;34.90;27.70;;;;;;;;;;1726584;82;21047;-69
2022/08/03 04:42:42;;;;;;;33.83;27.45;;;;;;;;;;1731189;82;21075;-68
2022/08/03 04:45:14;;;;;;;30.65;27.15;;;;;;;;;;1725344;82;21010;-69
2022/08/03 04:47:41;;;;;;;31.90;27.82;;;;;;;;;;1727938;81;21179;-68
2022/08/03 04:50:09;;;;;;;31.10;27.70;;;;;;;;;;1741876;82;21059;-68
2022/08/03 04:52:36;;;;;;;31.00;27.02;;;;;;;;;;1747533;82;21035;-68
2022/08/03 04:55:03;;;;;;;31.20;25.77;;;;;;;;;;1729157;82;21108;-69
2022/08/03 04:57:31;;;;;;;32.55;26.27;;;;;;;;;;1725072;81;21076;-68
2022/08/03 04:59:57;;;;;;;29.20;25.60;;;;;;;;;;1735442;82;21035;-68
2022/08/03 05:02:24;;;;;;;29.23;25.43;;;;;;;;;;1751914;82;21083;-68
2022/08/03 05:04:51;;;;;;;30.45;26.00;;;;;;;;;;1721640;82;21145;-69
2022/08/03 05:07:18;;;;;;;29.10;26.10;;;;;;;;;;1729805;82;21066;-68
2022/08/03 05:09:46;;;;;;;30.43;25.55;;;;;;;;;;1733140;82;21489;-69
2022/08/03 05:12:12;;;;;;;27.50;24.60;;;;;;;;;;1726812;82;21059;-68
2022/08/03 05:14:39;;;;;;;31.35;25.90;;;;;;;;;;1742887;82;21007;-68
2022/08/03 05:17:07;;;;;;;27.48;24.67;;;;;;;;;;1729355;82;21110;-67
2022/08/03 05:19:34;;;;;;;28.27;24.85;;;;;;;;;;1728803;82;21019;-68
2022/08/03 05:22:02;;;;;;;29.32;25.88;;;;;;;;;;1735795;82;20995;-68
2022/08/03 05:24:28;;;;;;;28.60;25.57;;;;;;;;;;1727719;82;21781;-69
2022/08/03 05:26:55;;;;;;;27.82;24.98;;;;;;;;;;1744318;82;21595;-68
2022/08/03 05:29:22;;;;;;;28.95;25.32;;;;;;;;;;1736657;82;21503;-69
2022/08/03 05:31:49;;;;;;;27.87;24.90;;;;;;;;;;1724645;82;21017;-68
2022/08/03 05:34:15;;;;;;;27.45;24.57;;;;;;;;;;1738509;82;21508;-68
2022/08/03 05:36:42;;;;;;;26.75;23.95;;;;;;;;;;1734681;82;21067;-69
2022/08/03 05:39:09;;;;;;;26.85;24.02;;;;;;;;;;1734850;82;21032;-68
2022/08/03 05:41:36;;;;;;;26.12;23.42;;;;;;;;;;1736328;82;21008;-69
2022/08/03 05:44:03;;;;;;;27.62;24.60;;;;;;;;;;1735267;81;21633;-69
2022/08/03 05:46:31;;;;;;;26.85;24.05;;;;;;;;;;1737452;81;21510;-68
2022/08/03 05:48:59;;;;;;;30.55;25.05;;;;;;;;;;1730305;82;21070;-68
2022/08/03 05:51:26;;;;;;;28.45;25.45;;;;;;;;;;1730875;82;21023;-68
2022/08/03 05:53:53;;;;;;;28.32;25.35;;;;;;;;;;1720827;82;21082;-67
2022/08/03 05:56:28;;;;;;;29.70;26.50;;;;;;;;;;1737796;82;21114;-69
2022/08/03 05:58:52;;;;;;;29.52;25.32;;;;;;;;;;1742948;82;21036;-68
2022/08/03 06:01:22;;;;;;;33.05;27.58;;;;;;;;;;1735401;82;21544;-68
2022/08/03 06:03:50;;;;;;;30.65;26.42;;;;;;;;;;1752145;82;21019;-69
2022/08/03 06:06:17;;;;;;;30.43;26.97;;;;;;;;;;1729079;82;21530;-69
2022/08/03 06:08:45;;;;;;;31.87;28.05;;;;;;;;;;1750259;82;21032;-69
2022/08/03 06:11:12;;;;;;;30.55;27.35;;;;;;;;;;1740544;82;21504;-69
2022/08/03 06:13:39;;;;;;;32.23;27.67;;;;;;;;;;1733390;81;21074;-68
2022/08/03 06:16:07;;;;;;;31.42;28.10;;;;;;;;;;1727359;81;20999;-69
2022/08/03 06:18:34;;;;;;;32.73;29.25;;;;;;;;;;1738897;82;21024;-69
2022/08/03 06:21:02;;;;;;;34.08;29.05;;;;;;;;;;1737285;82;21082;-69
2022/08/03 06:26:50;;;;;;;34.43;29.45;;;;;;;;;;1725778;82;21044;-69
2022/08/03 06:29:17;;;;;;;33.05;29.45;;;;;;;;;;1741581;82;21039;-69
2022/08/03 06:31:44;;;;;;;32.90;29.40;;;;;;;;;;1736012;82;21461;-67
2022/08/03 06:34:11;;;;;;;33.25;29.50;;;;;;;;;;1741728;82;21036;-67
2022/08/03 06:36:39;;;;;;;33.20;28.42;;;;;;;;;;1731000;82;21588;-67
2022/08/03 06:39:06;;;;;;;33.15;28.32;;;;;;;;;;1723754;82;21062;-67
2022/08/03 06:41:33;;;;;;;31.52;28.07;;;;;;;;;;1728606;82;21540;-68
2022/08/03 06:44:00;;;;;;;33.33;27.65;;;;;;;;;;1728361;82;21087;-67
2022/08/03 06:50:02;;;;;;;;;;;;;;;;;;1736532;82;21072;-67
2022/08/03 06:58:25;;;;;;;30.85;26.27;;;;;;;;;;1745030;82;21035;-68
2022/08/03 07:00:52;;;;;;;31.02;25.90;;;;;;;;;;1730748;82;21095;-68
2022/08/03 07:03:20;;;;;;;29.18;25.27;;;;;;;;;;1726419;82;21048;-69
2022/08/03 07:05:48;;;;;;;32.10;23.57;;;;;;;;;;1752380;82;21035;-68
2022/08/03 07:08:14;;;;;;;24.55;20.72;;;;;;;;;;1736083;82;21001;-68
2022/08/03 07:10:41;;;;;;;24.20;19.50;;;;;;;;;;1736564;82;21068;-68
2022/08/03 07:13:18;;;;;;;24.80;22.02;;;;;;;;;;1744332;82;21130;-68
2022/08/03 07:15:44;;;;;;;23.27;20.88;;;;;;;;;;1724479;81;21533;-68
2022/08/03 07:18:11;;;;;;;25.12;20.85;;;;;;;;;;1739226;82;21004;-68
2022/08/03 07:20:38;;;;;;;23.75;21.25;;;;;;;;;;1737747;82;21008;-68
2022/08/03 07:23:05;;;;;;;23.70;20.97;;;;;;;;;;1724850;82;21129;-69
2022/08/03 07:25:33;;;;;;;24.87;21.50;;;;;;;;;;1735429;82;21039;-68
2022/08/03 07:28:00;;;;;;;24.20;21.60;;;;;;;;;;1729549;82;21009;-68
2022/08/03 07:30:27;;;;;;;27.82;21.95;;;;;;;;;;1740354;82;21046;-69
2022/08/03 07:32:54;;;;;;;24.85;21.30;;;;;;;;;;1736158;82;21575;-68
2022/08/03 07:35:21;;;;;;;28.30;21.07;;;;;;;;;;1741426;82;21015;-71
2022/08/03 07:37:48;;;;;;;23.75;20.60;;;;;;;;;;1718445;82;21074;-68
2022/08/03 07:40:16;;;;;;;24.52;20.90;;;;;;;;;;1729839;82;21025;-68
2022/08/03 07:42:43;;;;;;;27.73;21.90;;;;;;;;;;1718406;83;21032;-68
2022/08/03 07:45:10;;;;;;;25.45;22.35;;;;;;;;;;1722018;82;21035;-67
2022/08/03 07:47:37;;;;;;;25.75;20.88;;;;;;;;;;1751321;81;21566;-68
2022/08/03 07:50:05;;;;;;;23.95;20.72;;;;;;;;;;1736117;82;22086;-68
2022/08/03 07:52:51;;;;;;;27.13;22.17;;;;;;;;;;1739557;82;21570;-67
2022/08/03 07:55:21;;;;;;;26.73;22.73;;;;;;;;;;1731361;82;21074;-68
2022/08/03 07:58:08;;;;;;;24.85;22.17;;;;;;;;;;1745202;82;21055;-67
2022/08/03 08:00:36;;;;;;;23.45;20.08;;;;;;;;;;1731554;82;21095;-67
2022/08/03 08:03:03;;;;;;;26.82;19.77;;;;;;;;;;1749725;82;21126;-68
2022/08/03 08:05:30;;;;;;;22.48;20.17;;;;;;;;;;1733744;82;21102;-68
2022/08/03 08:07:57;;;;;;;25.48;21.23;;;;;;;;;;1719906;82;21040;-68
2022/08/03 08:10:25;;;;;;;22.40;19.92;;;;;;;;;;1749820;82;21984;-69
2022/08/03 08:12:53;;;;;;;23.05;20.40;;;;;;;;;;1751575;82;21043;-68
2022/08/03 08:15:20;;;;;;;24.00;20.20;;;;;;;;;;1727618;81;21527;-68
2022/08/03 08:17:50;;;;;;;26.30;22.17;;;;;;;;;;1717435;82;21062;-69
2022/08/03 08:23:28;;;;;;;28.35;22.87;;;;;;;;;;1706461;82;21160;-68
2022/08/03 08:25:56;;;;;;;26.07;21.85;;;;;;;;;;1745747;82;21050;-68
2022/08/03 08:28:23;;;;;;;27.98;22.30;;;;;;;;;;1738608;82;21024;-68
2022/08/03 08:30:50;;;;;;;28.77;22.22;;;;;;;;;;1720195;81;21043;-68
2022/08/03 08:33:16;;;;;;;25.95;23.12;;;;;;;;;;1732934;82;21095;-70
2022/08/03 08:35:43;;;;;;;29.32;25.02;;;;;;;;;;1733078;82;21066;-70
2022/08/03 08:38:10;;;;;;;29.48;25.92;;;;;;;;;;1726515;81;21027;-68
2022/08/03 08:40:37;;;;;;;28.02;25.23;;;;;;;;;;1749860;82;22264;-68
2022/08/03 08:43:04;;;;;;;28.38;25.45;;;;;;;;;;1739488;82;21031;-67
2022/08/03 08:45:30;;;;;;;27.40;24.43;;;;;;;;;;1744367;81;21044;-68
2022/08/03 08:47:59;;;;;;;24.95;22.13;;;;;;;;;;1745463;80;21042;-69
2022/08/03 08:50:29;;;;;;;25.90;23.20;;;;;;;;;;1759313;80;20957;-68
2022/08/03 08:52:59;;;;;;;28.38;22.55;;;;;;;;;;1738048;81;21524;-68
2022/08/03 08:55:26;;;;;;;27.25;22.65;;;;;;;;;;1746576;80;21531;-68
2022/08/03 08:57:58;;;;;;;25.35;22.80;;;;;;;;;;1752557;80;21055;-68
2022/08/03 09:00:25;;;;;;;25.02;22.27;;;;;;;;;;1726209;81;20992;-68
2022/08/03 09:02:51;;;;;;;23.77;21.37;;;;;;;;;;1735546;81;21006;-68
2022/08/03 09:05:19;;;;;;;22.37;20.10;;;;;;;;;;1750381;80;21483;-68
2022/08/03 09:07:47;;;;;;;21.62;19.52;;;;;;;;;;1750635;81;21503;-69
2022/08/03 09:10:48;;;;;;;19.95;17.85;;;;;;;;;;1751712;81;21011;-69
2022/08/03 09:13:15;;;;;;;22.50;20.20;;;;;;;;;;1753597;81;21027;-71
2022/08/03 09:15:43;;;;;;;22.60;20.20;;;;;;;;;;1750303;81;21042;-71
2022/08/03 09:21:45;;;;;;;22.50;20.20;;;;;;;;;;1746528;81;21086;-69
2022/08/03 09:24:12;;;;;;;22.07;19.70;;;;;;;;;;1753148;81;21019;-70
2022/08/03 09:26:39;;;;;;;21.85;19.67;;;;;;;;;;1750299;81;21055;-68
2022/08/03 09:29:08;;;;;;;21.60;19.30;;;;;;;;;;1728298;82;21150;-67
2022/08/03 09:31:39;;;;;;;23.73;21.30;;;;;;;;;;1750101;81;21016;-68
2022/08/03 09:34:09;;;;;;;23.18;20.40;;;;;;;;;;1752824;81;21488;-68
2022/08/03 09:36:38;;;;;;;22.52;18.27;;;;;;;;;;1749743;81;21042;-68
2022/08/03 09:39:09;;;;;;;21.17;18.85;;;;;;;;;;1728452;82;21031;-69
2022/08/03 09:41:40;;;;;;;19.32;17.52;;;;;;;;;;1752021;81;21032;-68
2022/08/03 09:44:07;;;;;;;18.57;16.82;;;;;;;;;;1751244;81;21008;-71
2022/08/03 09:46:54;;;;;;;18.48;16.65;;;;;;;;;;1749882;81;21060;-69
2022/08/03 09:55:22;;;;;;;15.43;13.93;;;;;;;;;;1746398;82;22621;-68
2022/08/03 09:57:49;;;;;;;15.32;13.78;;;;;;;;;;1748969;81;21572;-69
2022/08/03 10:00:16;;;;;;;14.85;13.38;;;;;;;;;;1749631;81;21047;-69
2022/08/03 10:02:44;;;;;;;15.23;13.72;;;;;;;;;;1751973;80;21102;-69
2022/08/03 10:05:12;;;;;;;16.32;14.63;;;;;;;;;;1748606;82;21082;-68
2022/08/03 10:07:47;;;;;;;14.95;13.55;;;;;;;;;;1749431;81;21058;-70
2022/08/03 10:10:15;;;;;;;16.25;14.70;;;;;;;;;;1753264;81;21028;-69
2022/08/03 10:12:43;;;;;;;17.35;15.35;;;;;;;;;;1750156;81;21095;-68
2022/08/03 10:15:10;;;;;;;18.12;16.17;;;;;;;;;;1749280;81;21059;-69
2022/08/03 10:17:39;;;;;;;19.20;17.40;;;;;;;;;;1751241;81;21036;-69
2022/08/03 10:20:09;;;;;;;19.37;17.37;;;;;;;;;;1749388;81;21099;-69
2022/08/03 10:22:37;;;;;;;19.25;17.50;;;;;;;;;;1749232;80;21024;-69
2022/08/03 10:25:07;;;;;;;18.32;16.60;;;;;;;;;;1747829;81;21039;-69
2022/08/03 10:27:37;;;;;;;19.60;17.60;;;;;;;;;;1748868;81;21079;-69
2022/08/03 10:30:07;;;;;;;19.92;17.32;;;;;;;;;;1750975;81;21011;-69
2022/08/03 10:32:42;;;;;;;20.15;18.02;;;;;;;;;;1750175;81;21014;-68
2022/08/03 10:35:15;;;;;;;19.00;17.05;;;;;;;;;;1749313;81;21023;-68
2022/08/03 10:37:43;;;;;;;18.03;16.33;;;;;;;;;;1749312;81;21042;-68
2022/08/03 10:40:15;;;;;;;16.87;15.32;;;;;;;;;;1753410;81;21098;-68
2022/08/03 10:42:43;;;;;;;16.65;14.98;;;;;;;;;;1753735;81;21499;-68
2022/08/03 10:45:22;;;;;;;15.83;14.38;;;;;;;;;;1759048;80;21066;-69
2022/08/03 10:47:51;;;;;;;16.57;14.20;;;;;;;;;;1765693;80;21040;-72
2022/08/03 10:50:18;;;;;;;16.17;14.45;;;;;;;;;;1775989;80;21026;-68
2022/08/03 10:53:02;;;;;;;15.95;14.45;;;;;;;;;;1778278;80;21468;-68
2022/08/03 10:58:15;;;;;;;15.23;13.72;;;;;;;;;;1760640;80;20129;-68
2022/08/03 11:00:45;;;;;;;14.78;13.38;;;;;;;;;;1768666;80;21071;-69
2022/08/03 11:03:16;;;;;;;14.93;13.48;;;;;;;;;;1758032;80;21114;-68
2022/08/03 11:05:45;;;;;;;14.40;12.98;;;;;;;;;;1774385;80;21067;-69
2022/08/03 11:08:24;;;;;;;15.48;13.90;;;;;;;;;;1754807;80;21066;-69
2022/08/03 11:10:54;;;;;;;14.80;13.32;;;;;;;;;;1757258;80;21047;-71
2022/08/03 11:13:23;;;;;;;14.25;12.75;;;;;;;;;;1770598;80;21039;-69
2022/08/03 11:15:52;;;;;;;14.55;12.98;;;;;;;;;;1778226;80;20988;-68
2022/08/03 11:18:19;;;;;;;15.13;13.70;;;;;;;;;;1784435;80;21315;-68
2022/08/03 11:20:53;;;;;;;24.07;15.88;;;;;;;;;;1766392;80;21064;-68
2022/08/03 11:23:43;;;;;;;20.90;14.85;;;;;;;;;;1769077;80;21011;-68
2022/08/03 11:26:21;;;;;;;19.07;13.18;;;;;;;;;;1779446;80;21063;-69
2022/08/03 11:28:48;;;;;;;13.95;10.38;;;;;;;;;;1773897;80;21578;-68
2022/08/03 11:31:25;;;;;;;11.70;8.78;;;;;;;;;;1755686;80;21042;-68
2022/08/03 11:34:07;;;;;;;11.60;7.92;;;;;;;;;;1763300;80;21024;-70
2022/08/03 11:37:11;;;;;;;9.40;8.43;;;;;;;;;;1767909;80;21587;-68
2022/08/03 11:39:46;;;;;;;7.97;7.17;;;;;;;;;;1766499;80;21023;-68
2022/08/03 11:42:26;;;;;;;8.70;7.80;;;;;;;;;;1761492;81;21032;-70
2022/08/03 11:44:58;;;;;;;8.20;7.40;;;;;;;;;;1757720;80;21532;-70
2022/08/03 11:47:27;;;;;;;8.40;6.83;;;;;;;;;;1769599;80;21027;-69
2022/08/03 11:49:57;;;;;;;8.50;7.60;;;;;;;;;;1752368;80;21015;-69
2022/08/03 11:52:25;;;;;;;9.98;7.53;;;;;;;;;;1784360;80;21008;-68
2022/08/03 11:54:52;;;;;;;8.10;7.33;;;;;;;;;;1768347;80;21021;-71
2022/08/03 12:00:42;;;;;;;9.33;8.50;;;;;;;;;;1765107;80;21507;-69
2022/08/03 12:03:11;;;;;;;9.40;8.30;;;;;;;;;;1757867;80;21039;-70
2022/08/03 12:05:47;;;;;;;11.25;9.03;;;;;;;;;;1772769;80;21011;-69
2022/08/03 12:08:17;;;;;;;8.93;7.50;;;;;;;;;;1771986;80;21044;-69
2022/08/03 12:10:48;;;;;;;9.18;8.03;;;;;;;;;;1764598;80;20988;-69
2022/08/03 12:13:16;;;;;;;8.68;7.87;;;;;;;;;;1763956;80;21033;-69
2022/08/03 12:15:45;;;;;;;10.82;8.55;;;;;;;;;;1760900;80;21024;-69
2022/08/03 12:18:16;;;;;;;8.23;7.53;;;;;;;;;;1777765;80;21043;-68
2022/08/03 12:20:44;;;;;;;8.40;7.60;;;;;;;;;;1762884;80;21031;-68
2022/08/03 12:23:12;;;;;;;9.43;7.90;;;;;;;;;;1780828;80;21039;-69
2022/08/03 12:28:50;;;;;;;8.43;7.60;;;;;;;;;;1771002;80;21120;-68
2022/08/03 12:31:17;;;;;;;8.40;7.60;;;;;;;;;;1765047;80;21087;-69
2022/08/03 12:34:01;;;;;;;11.18;7.10;;;;;;;;;;1763471;81;21038;-68
2022/08/03 12:36:30;;;;;;;8.28;7.47;;;;;;;;;;1772282;80;21594;-69
2022/08/03 12:38:58;;;;;;;11.68;7.22;;;;;;;;;;1764616;80;21026;-71
2022/08/03 12:41:30;;;;;;;9.18;7.40;;;;;;;;;;1787463;80;21031;-68
2022/08/03 12:43:57;;;;;;;8.38;7.40;;;;;;;;;;1761068;80;21499;-69
2022/08/03 12:46:29;;;;;;;7.90;7.10;;;;;;;;;;1759922;80;21014;-68
2022/08/03 12:49:01;;;;;;;8.67;7.63;;;;;;;;;;1773562;80;21044;-68
2022/08/03 12:51:30;;;;;;;8.35;7.00;;;;;;;;;;1764141;80;21226;-68
2022/08/03 12:53:57;;;;;;;7.92;7.22;;;;;;;;;;1764399;80;21079;-68
2022/08/03 12:56:25;;;;;;;8.98;7.05;;;;;;;;;;1760429;80;21049;-69
2022/08/03 12:58:56;;;;;;;7.25;6.40;;;;;;;;;;1762185;80;21102;-68
2022/08/03 13:01:26;;;;;;;10.15;7.28;;;;;;;;;;1756844;80;21502;-68
2022/08/03 13:03:53;;;;;;;10.50;7.47;;;;;;;;;;1768177;80;21296;-68
2022/08/03 13:06:22;;;;;;;9.05;7.67;;;;;;;;;;1766232;80;21015;-69
2022/08/03 13:09:04;;;;;;;9.53;8.13;;;;;;;;;;1766809;80;21504;-69
2022/08/03 13:11:33;;;;;;;9.65;8.40;;;;;;;;;;1765478;80;21024;-69
2022/08/03 13:14:00;;;;;;;11.22;8.83;;;;;;;;;;1765297;80;21558;-69
2022/08/03 13:16:26;;;;;;;10.13;9.13;;;;;;;;;;1767824;80;21194;-69
2022/08/03 13:18:55;;;;;;;10.32;9.13;;;;;;;;;;1763584;80;22617;-68
2022/08/03 13:21:21;;;;;;;9.50;8.60;;;;;;;;;;1757144;80;21043;-73
2022/08/03 13:23:48;;;;;;;8.98;8.08;;;;;;;;;;1755664;80;21033;-69
2022/08/03 13:26:15;;;;;;;13.28;9.23;;;;;;;;;;1756856;80;21058;-69
2022/08/03 13:28:42;;;;;;;10.23;8.95;;;;;;;;;;1784203;80;21372;-69
2022/08/03 13:35:15;;;;;;;9.70;8.58;;;;;;;;;;1776115;80;21634;-69
2022/08/03 13:37:42;;;;;;;9.73;8.73;;;;;;;;;;1775295;80;21086;-69
2022/08/03 13:40:10;;;;;;;10.28;8.90;;;;;;;;;;1770739;80;21151;-69
2022/08/03 13:42:36;;;;;;;10.35;9.10;;;;;;;;;;1755653;80;21055;-69
2022/08/03 13:45:04;;;;;;;9.88;8.48;;;;;;;;;;1770068;80;21507;-69
2022/08/03 13:47:31;;;;;;;10.03;9.03;;;;;;;;;;1778444;80;21242;-69
2022/08/03 13:49:58;;;;;;;9.58;8.58;;;;;;;;;;1780033;80;21093;-69
2022/08/03 13:52:24;;;;;;;8.78;7.78;;;;;;;;;;1784144;80;20996;-69
2022/08/03 13:54:52;;;;;;;7.95;7.25;;;;;;;;;;1763010;80;21035;-67
2022/08/03 13:57:20;;;;;;;8.25;7.50;;;;;;;;;;1758695;80;21072;-67
2022/08/03 13:59:48;;;;;;;9.30;7.35;;;;;;;;;;1760940;80;21074;-69
2022/08/03 14:02:15;;;;;;;7.53;6.83;;;;;;;;;;1764647;80;21025;-69
2022/08/03 14:04:42;;;;;;;8.98;7.83;;;;;;;;;;1774101;81;21067;-69
2022/08/03 14:07:08;;;;;;;9.88;7.50;;;;;;;;;;1756904;80;21060;-68
2022/08/03 14:09:36;;;;;;;8.23;7.30;;;;;;;;;;1757627;80;21017;-68
2022/08/03 14:12:04;;;;;;;9.20;8.18;;;;;;;;;;1773260;80;21047;-69
2022/08/03 14:14:31;;;;;;;8.25;7.37;;;;;;;;;;1765943;80;21007;-68
2022/08/03 14:16:59;;;;;;;9.10;8.20;;;;;;;;;;1763521;80;21514;-68
2022/08/03 14:19:26;;;;;;;9.80;8.80;;;;;;;;;;1783985;80;21016;-70
2022/08/03 14:21:52;;;;;;;10.95;9.83;;;;;;;;;;1776071;80;21031;-69
2022/08/03 14:24:20;;;;;;;12.30;10.82;;;;;;;;;;1750710;80;20983;-68
2022/08/03 14:26:46;;;;;;;18.75;11.95;;;;;;;;;;1774063;80;21094;-68
2022/08/03 14:29:13;;;;;;;15.15;12.15;;;;;;;;;;1778233;80;21518;-69
2022/08/03 14:31:40;;;;;;;11.85;10.48;;;;;;;;;;1777962;80;21063;-69
2022/08/03 14:34:07;;;;;;;10.18;9.28;;;;;;;;;;1752085;80;21029;-68
2022/08/03 14:36:34;;;;;;;12.70;9.63;;;;;;;;;;1763573;80;21107;-68
2022/08/03 14:39:01;;;;;;;10.90;9.90;;;;;;;;;;1759336;80;21048;-69
2022/08/03 14:41:28;;;;;;;11.00;9.90;;;;;;;;;;1765520;80;21078;-69
2022/08/03 14:43:55;;;;;;;12.50;10.13;;;;;;;;;;1770073;80;21040;-69
2022/08/03 14:46:22;;;;;;;10.45;9.38;;;;;;;;;;1770499;80;21527;-68
2022/08/03 14:48:49;;;;;;;11.55;10.35;;;;;;;;;;1766501;80;21058;-68
2022/08/03 14:51:16;;;;;;;14.10;10.00;;;;;;;;;;1777791;80;21059;-68
2022/08/03 14:53:42;;;;;;;13.08;10.03;;;;;;;;;;1760985;80;21029;-69
2022/08/03 14:56:09;;;;;;;13.93;11.20;;;;;;;;;;1758009;80;21518;-68
2022/08/03 14:58:37;;;;;;;11.45;10.35;;;;;;;;;;1761116;80;21000;-68
2022/08/03 15:01:06;;;;;;;10.80;9.70;;;;;;;;;;1761475;80;21035;-69
2022/08/03 15:03:34;;;;;;;10.88;9.88;;;;;;;;;;1773365;80;21055;-69
2022/08/03 15:06:00;;;;;;;11.10;9.93;;;;;;;;;;1758585;80;21098;-71
2022/08/03 15:08:27;;;;;;;11.10;9.25;;;;;;;;;;1768600;80;21051;-69
2022/08/03 15:14:42;;;;;;;10.45;9.35;;;;;;;;;;1784592;80;21071;-67
2022/08/03 15:17:09;;;;;;;10.50;8.73;;;;;;;;;;1754910;80;21118;-69
2022/08/03 15:19:38;;;;;;;12.88;8.55;;;;;;;;;;1772463;80;20995;-69
2022/08/03 15:22:05;;;;;;;9.80;8.58;;;;;;;;;;1761426;81;21542;-69
2022/08/03 15:24:32;;;;;;;8.70;7.15;;;;;;;;;;1760625;80;21036;-69
2022/08/03 15:26:59;;;;;;;7.12;6.33;;;;;;;;;;1761460;80;21035;-69
2022/08/03 15:32:24;;;;;;;5.90;5.30;;;;;;;;;;1763661;80;21003;-68
2022/08/03 15:34:51;;;;;;;5.53;5.03;;;;;;;;;;1752956;81;21118;-68
2022/08/03 15:37:21;;;;;;;5.97;5.10;;;;;;;;;;1762573;80;21064;-69
2022/08/03 15:39:47;;;;;;;6.40;5.20;;;;;;;;;;1774312;80;21519;-68
2022/08/03 15:45:43;;;;;;;6.35;4.90;;;;;;;;;;1764058;80;21012;-69
2022/08/03 15:48:10;;;;;;;7.10;5.10;;;;;;;;;;1772532;80;21000;-70